sensor_id;sensor_type;location;lat;lon;timestamp;P1;durP1;ratioP1;P2;durP2;ratioP2
26080;SDS011;13991;51.174;4.438;2023-04-15T00:00:15;15.17;;;4.33;;
26080;SDS011;13991;51.174;4.438;2023-04-15T00:02:41;18.70;;;4.40;;
26080;SDS011;13991;51.174;4.438;2023-04-15T00:05:08;14.27;;;4.67;;
26080;SDS011;13991;51.174;4.438;2023-04-15T00:07:34;9.33;;;3.43;;
26080;SDS011;13991;51.174;4.438;2023-04-15T00:10:00;10.27;;;3.70;;
26080;SDS011;13991;51.174;4.438;2023-04-15T00:12:26;14.20;;;4.30;;
26080;SDS011;13991;51.174;4.438;2023-04-15T00:14:52;11.50;;;4.27;;
26080;SDS011;13991;51.174;4.438;2023-04-15T00:17:18;11.70;;;4.03;;
26080;SDS011;13991;51.174;4.438;2023-04-15T00:19:45;8.17;;;3.47;;
26080;SDS011;13991;51.174;4.438;2023-04-15T00:22:11;13.93;;;3.60;;
26080;SDS011;13991;51.174;4.438;2023-04-15T00:24:37;11.63;;;3.87;;
26080;SDS011;13991;51.174;4.438;2023-04-15T00:27:03;13.63;;;4.43;;
26080;SDS011;13991;51.174;4.438;2023-04-15T00:29:29;15.20;;;4.70;;
26080;SDS011;13991;51.174;4.438;2023-04-15T00:31:55;14.53;;;3.83;;
26080;SDS011;13991;51.174;4.438;2023-04-15T00:34:21;12.83;;;4.50;;
26080;SDS011;13991;51.174;4.438;2023-04-15T00:36:48;14.87;;;4.43;;
26080;SDS011;13991;51.174;4.438;2023-04-15T00:39:14;11.80;;;4.00;;
26080;SDS011;13991;51.174;4.438;2023-04-15T00:41:40;12.87;;;3.97;;
26080;SDS011;13991;51.174;4.438;2023-04-15T00:44:06;14.20;;;4.90;;
26080;SDS011;13991;51.174;4.438;2023-04-15T00:46:36;11.07;;;4.17;;
26080;SDS011;13991;51.174;4.438;2023-04-15T00:49:04;11.23;;;3.60;;
26080;SDS011;13991;51.174;4.438;2023-04-15T00:51:30;13.63;;;3.93;;
26080;SDS011;13991;51.174;4.438;2023-04-15T00:54:03;14.47;;;4.63;;
26080;SDS011;13991;51.174;4.438;2023-04-15T00:56:34;15.57;;;3.80;;
26080;SDS011;13991;51.174;4.438;2023-04-15T00:59:00;11.67;;;3.30;;
26080;SDS011;13991;51.174;4.438;2023-04-15T01:01:26;12.43;;;3.50;;
26080;SDS011;13991;51.174;4.438;2023-04-15T01:03:55;8.80;;;3.53;;
26080;SDS011;13991;51.174;4.438;2023-04-15T01:06:24;11.60;;;4.13;;
26080;SDS011;13991;51.174;4.438;2023-04-15T01:08:51;8.90;;;3.17;;
26080;SDS011;13991;51.174;4.438;2023-04-15T01:11:18;17.63;;;3.80;;
26080;SDS011;13991;51.174;4.438;2023-04-15T01:13:44;16.57;;;3.97;;
26080;SDS011;13991;51.174;4.438;2023-04-15T01:16:10;14.10;;;4.20;;
26080;SDS011;13991;51.174;4.438;2023-04-15T01:18:37;12.00;;;3.87;;
26080;SDS011;13991;51.174;4.438;2023-04-15T01:21:03;13.60;;;3.70;;
26080;SDS011;13991;51.174;4.438;2023-04-15T01:23:30;22.27;;;4.33;;
26080;SDS011;13991;51.174;4.438;2023-04-15T01:25:56;14.63;;;4.00;;
26080;SDS011;13991;51.174;4.438;2023-04-15T01:28:23;20.63;;;3.63;;
26080;SDS011;13991;51.174;4.438;2023-04-15T01:30:49;9.53;;;3.37;;
26080;SDS011;13991;51.174;4.438;2023-04-15T01:33:29;12.07;;;4.13;;
26080;SDS011;13991;51.174;4.438;2023-04-15T01:35:55;10.03;;;4.40;;
26080;SDS011;13991;51.174;4.438;2023-04-15T01:38:21;11.97;;;3.83;;
26080;SDS011;13991;51.174;4.438;2023-04-15T01:40:47;23.70;;;4.70;;
26080;SDS011;13991;51.174;4.438;2023-04-15T01:43:12;13.57;;;3.60;;
26080;SDS011;13991;51.174;4.438;2023-04-15T01:45:39;19.33;;;4.97;;
26080;SDS011;13991;51.174;4.438;2023-04-15T01:48:05;24.53;;;3.77;;
26080;SDS011;13991;51.174;4.438;2023-04-15T01:50:32;17.30;;;3.93;;
26080;SDS011;13991;51.174;4.438;2023-04-15T01:52:58;12.60;;;4.37;;
26080;SDS011;13991;51.174;4.438;2023-04-15T01:55:23;14.03;;;3.80;;
26080;SDS011;13991;51.174;4.438;2023-04-15T01:57:49;17.90;;;5.80;;
26080;SDS011;13991;51.174;4.438;2023-04-15T02:00:15;22.97;;;6.90;;
26080;SDS011;13991;51.174;4.438;2023-04-15T02:02:41;20.63;;;6.17;;
26080;SDS011;13991;51.174;4.438;2023-04-15T02:05:07;18.33;;;4.30;;
26080;SDS011;13991;51.174;4.438;2023-04-15T02:07:33;16.87;;;5.00;;
26080;SDS011;13991;51.174;4.438;2023-04-15T02:09:59;19.33;;;4.90;;
26080;SDS011;13991;51.174;4.438;2023-04-15T02:12:25;16.47;;;4.80;;
26080;SDS011;13991;51.174;4.438;2023-04-15T02:14:51;15.93;;;3.73;;
26080;SDS011;13991;51.174;4.438;2023-04-15T02:17:17;18.27;;;4.17;;
26080;SDS011;13991;51.174;4.438;2023-04-15T02:19:43;14.63;;;4.27;;
26080;SDS011;13991;51.174;4.438;2023-04-15T02:22:08;36.00;;;4.03;;
26080;SDS011;13991;51.174;4.438;2023-04-15T02:24:37;9.30;;;3.80;;
26080;SDS011;13991;51.174;4.438;2023-04-15T02:27:03;14.67;;;3.87;;
26080;SDS011;13991;51.174;4.438;2023-04-15T02:29:30;13.80;;;4.33;;
26080;SDS011;13991;51.174;4.438;2023-04-15T02:31:56;15.70;;;4.67;;
26080;SDS011;13991;51.174;4.438;2023-04-15T02:34:22;11.67;;;4.30;;
26080;SDS011;13991;51.174;4.438;2023-04-15T02:36:47;14.87;;;4.13;;
26080;SDS011;13991;51.174;4.438;2023-04-15T02:39:13;15.73;;;3.80;;
26080;SDS011;13991;51.174;4.438;2023-04-15T02:41:41;10.60;;;3.47;;
26080;SDS011;13991;51.174;4.438;2023-04-15T02:44:07;19.23;;;5.03;;
26080;SDS011;13991;51.174;4.438;2023-04-15T02:46:33;10.57;;;3.47;;
26080;SDS011;13991;51.174;4.438;2023-04-15T02:49:00;12.20;;;3.83;;
26080;SDS011;13991;51.174;4.438;2023-04-15T02:51:28;23.83;;;5.03;;
26080;SDS011;13991;51.174;4.438;2023-04-15T02:53:56;9.57;;;3.37;;
26080;SDS011;13991;51.174;4.438;2023-04-15T02:56:22;7.80;;;3.20;;
26080;SDS011;13991;51.174;4.438;2023-04-15T02:58:48;13.07;;;4.07;;
26080;SDS011;13991;51.174;4.438;2023-04-15T03:01:14;18.67;;;4.10;;
26080;SDS011;13991;51.174;4.438;2023-04-15T03:03:40;9.80;;;3.10;;
26080;SDS011;13991;51.174;4.438;2023-04-15T03:06:06;11.10;;;3.40;;
26080;SDS011;13991;51.174;4.438;2023-04-15T03:08:32;16.33;;;3.47;;
26080;SDS011;13991;51.174;4.438;2023-04-15T03:10:58;13.07;;;3.70;;
26080;SDS011;13991;51.174;4.438;2023-04-15T03:13:26;15.87;;;3.80;;
26080;SDS011;13991;51.174;4.438;2023-04-15T03:15:52;14.37;;;3.10;;
26080;SDS011;13991;51.174;4.438;2023-04-15T03:18:17;14.73;;;4.07;;
26080;SDS011;13991;51.174;4.438;2023-04-15T03:20:43;10.17;;;3.50;;
26080;SDS011;13991;51.174;4.438;2023-04-15T03:23:09;15.90;;;3.50;;
26080;SDS011;13991;51.174;4.438;2023-04-15T03:25:35;21.83;;;4.33;;
26080;SDS011;13991;51.174;4.438;2023-04-15T03:28:01;11.53;;;3.50;;
26080;SDS011;13991;51.174;4.438;2023-04-15T03:30:27;9.90;;;3.87;;
26080;SDS011;13991;51.174;4.438;2023-04-15T03:32:53;10.87;;;3.93;;
26080;SDS011;13991;51.174;4.438;2023-04-15T03:35:19;14.90;;;3.03;;
26080;SDS011;13991;51.174;4.438;2023-04-15T03:37:44;13.10;;;3.33;;
26080;SDS011;13991;51.174;4.438;2023-04-15T03:40:10;13.77;;;3.53;;
26080;SDS011;13991;51.174;4.438;2023-04-15T03:42:36;13.13;;;3.70;;
26080;SDS011;13991;51.174;4.438;2023-04-15T03:45:02;13.27;;;3.17;;
26080;SDS011;13991;51.174;4.438;2023-04-15T03:47:28;14.37;;;4.00;;
26080;SDS011;13991;51.174;4.438;2023-04-15T03:49:53;15.47;;;3.57;;
26080;SDS011;13991;51.174;4.438;2023-04-15T03:52:19;11.47;;;4.37;;
26080;SDS011;13991;51.174;4.438;2023-04-15T03:54:45;18.77;;;3.77;;
26080;SDS011;13991;51.174;4.438;2023-04-15T03:57:11;19.30;;;3.80;;
26080;SDS011;13991;51.174;4.438;2023-04-15T03:59:37;15.60;;;3.63;;
26080;SDS011;13991;51.174;4.438;2023-04-15T04:02:02;15.83;;;3.20;;
26080;SDS011;13991;51.174;4.438;2023-04-15T04:04:28;10.43;;;3.47;;
26080;SDS011;13991;51.174;4.438;2023-04-15T04:06:54;15.10;;;3.40;;
26080;SDS011;13991;51.174;4.438;2023-04-15T04:09:19;11.33;;;3.47;;
26080;SDS011;13991;51.174;4.438;2023-04-15T04:11:45;19.10;;;4.03;;
26080;SDS011;13991;51.174;4.438;2023-04-15T04:14:11;15.07;;;4.20;;
26080;SDS011;13991;51.174;4.438;2023-04-15T04:16:36;14.30;;;4.17;;
26080;SDS011;13991;51.174;4.438;2023-04-15T04:19:02;11.67;;;3.80;;
26080;SDS011;13991;51.174;4.438;2023-04-15T04:21:28;14.90;;;3.93;;
26080;SDS011;13991;51.174;4.438;2023-04-15T04:23:53;11.80;;;4.20;;
26080;SDS011;13991;51.174;4.438;2023-04-15T04:26:20;11.27;;;3.77;;
26080;SDS011;13991;51.174;4.438;2023-04-15T04:28:46;15.43;;;3.60;;
26080;SDS011;13991;51.174;4.438;2023-04-15T04:31:12;17.80;;;3.60;;
26080;SDS011;13991;51.174;4.438;2023-04-15T04:33:38;18.40;;;4.20;;
26080;SDS011;13991;51.174;4.438;2023-04-15T04:36:04;21.07;;;4.87;;
26080;SDS011;13991;51.174;4.438;2023-04-15T04:38:30;18.17;;;5.00;;
26080;SDS011;13991;51.174;4.438;2023-04-15T04:40:56;16.57;;;4.93;;
26080;SDS011;13991;51.174;4.438;2023-04-15T04:43:21;13.90;;;4.47;;
26080;SDS011;13991;51.174;4.438;2023-04-15T04:45:47;17.80;;;5.50;;
26080;SDS011;13991;51.174;4.438;2023-04-15T04:48:13;16.27;;;3.67;;
26080;SDS011;13991;51.174;4.438;2023-04-15T04:50:38;14.33;;;4.83;;
26080;SDS011;13991;51.174;4.438;2023-04-15T04:53:04;16.50;;;5.57;;
26080;SDS011;13991;51.174;4.438;2023-04-15T04:55:29;14.50;;;4.73;;
26080;SDS011;13991;51.174;4.438;2023-04-15T04:57:56;14.60;;;4.40;;
26080;SDS011;13991;51.174;4.438;2023-04-15T05:00:21;15.43;;;5.10;;
26080;SDS011;13991;51.174;4.438;2023-04-15T05:02:47;18.10;;;5.20;;
26080;SDS011;13991;51.174;4.438;2023-04-15T05:05:13;23.60;;;5.70;;
26080;SDS011;13991;51.174;4.438;2023-04-15T05:07:39;21.13;;;5.80;;
26080;SDS011;13991;51.174;4.438;2023-04-15T05:10:04;20.07;;;5.37;;
26080;SDS011;13991;51.174;4.438;2023-04-15T05:12:31;17.43;;;4.73;;
26080;SDS011;13991;51.174;4.438;2023-04-15T05:14:56;12.10;;;4.80;;
26080;SDS011;13991;51.174;4.438;2023-04-15T05:17:22;18.03;;;4.73;;
26080;SDS011;13991;51.174;4.438;2023-04-15T05:19:48;16.17;;;5.57;;
26080;SDS011;13991;51.174;4.438;2023-04-15T05:22:13;16.93;;;5.63;;
26080;SDS011;13991;51.174;4.438;2023-04-15T05:24:39;21.60;;;5.27;;
26080;SDS011;13991;51.174;4.438;2023-04-15T05:27:05;30.77;;;5.90;;
26080;SDS011;13991;51.174;4.438;2023-04-15T05:29:32;23.17;;;6.43;;
26080;SDS011;13991;51.174;4.438;2023-04-15T05:31:58;20.40;;;5.73;;
26080;SDS011;13991;51.174;4.438;2023-04-15T05:34:24;16.77;;;5.60;;
26080;SDS011;13991;51.174;4.438;2023-04-15T05:36:50;17.30;;;7.07;;
26080;SDS011;13991;51.174;4.438;2023-04-15T05:39:16;15.57;;;6.23;;
26080;SDS011;13991;51.174;4.438;2023-04-15T05:41:42;24.97;;;6.77;;
26080;SDS011;13991;51.174;4.438;2023-04-15T05:44:08;13.97;;;5.53;;
26080;SDS011;13991;51.174;4.438;2023-04-15T05:46:34;15.13;;;6.40;;
26080;SDS011;13991;51.174;4.438;2023-04-15T05:48:59;18.10;;;5.67;;
26080;SDS011;13991;51.174;4.438;2023-04-15T05:51:25;13.53;;;6.10;;
26080;SDS011;13991;51.174;4.438;2023-04-15T05:53:51;16.53;;;6.47;;
26080;SDS011;13991;51.174;4.438;2023-04-15T05:56:16;16.97;;;7.07;;
26080;SDS011;13991;51.174;4.438;2023-04-15T05:58:44;17.00;;;7.10;;
26080;SDS011;13991;51.174;4.438;2023-04-15T06:01:10;17.07;;;6.83;;
26080;SDS011;13991;51.174;4.438;2023-04-15T06:03:36;19.87;;;6.93;;
26080;SDS011;13991;51.174;4.438;2023-04-15T06:06:02;22.87;;;7.57;;
26080;SDS011;13991;51.174;4.438;2023-04-15T06:08:28;25.27;;;7.73;;
26080;SDS011;13991;51.174;4.438;2023-04-15T06:10:54;24.87;;;8.13;;
26080;SDS011;13991;51.174;4.438;2023-04-15T06:13:20;24.97;;;8.00;;
26080;SDS011;13991;51.174;4.438;2023-04-15T06:15:45;30.90;;;8.60;;
26080;SDS011;13991;51.174;4.438;2023-04-15T06:18:11;23.73;;;8.07;;
26080;SDS011;13991;51.174;4.438;2023-04-15T06:20:37;31.10;;;8.93;;
26080;SDS011;13991;51.174;4.438;2023-04-15T06:23:02;23.73;;;9.47;;
26080;SDS011;13991;51.174;4.438;2023-04-15T06:25:28;24.00;;;9.67;;
26080;SDS011;13991;51.174;4.438;2023-04-15T06:27:54;23.37;;;9.63;;
26080;SDS011;13991;51.174;4.438;2023-04-15T06:30:20;29.10;;;10.80;;
26080;SDS011;13991;51.174;4.438;2023-04-15T06:32:45;34.13;;;11.33;;
26080;SDS011;13991;51.174;4.438;2023-04-15T06:35:11;30.30;;;10.17;;
26080;SDS011;13991;51.174;4.438;2023-04-15T06:37:37;34.07;;;10.53;;
26080;SDS011;13991;51.174;4.438;2023-04-15T06:40:02;25.67;;;10.07;;
26080;SDS011;13991;51.174;4.438;2023-04-15T06:42:29;24.80;;;9.70;;
26080;SDS011;13991;51.174;4.438;2023-04-15T06:44:55;26.60;;;10.40;;
26080;SDS011;13991;51.174;4.438;2023-04-15T06:47:20;27.37;;;9.87;;
26080;SDS011;13991;51.174;4.438;2023-04-15T06:49:46;24.23;;;9.97;;
26080;SDS011;13991;51.174;4.438;2023-04-15T06:52:12;23.53;;;10.07;;
26080;SDS011;13991;51.174;4.438;2023-04-15T06:54:37;28.63;;;9.33;;
26080;SDS011;13991;51.174;4.438;2023-04-15T06:57:03;21.90;;;9.27;;
26080;SDS011;13991;51.174;4.438;2023-04-15T06:59:29;29.17;;;9.53;;
26080;SDS011;13991;51.174;4.438;2023-04-15T07:01:55;26.63;;;10.10;;
26080;SDS011;13991;51.174;4.438;2023-04-15T07:04:21;25.53;;;9.33;;
26080;SDS011;13991;51.174;4.438;2023-04-15T07:06:47;26.80;;;9.57;;
26080;SDS011;13991;51.174;4.438;2023-04-15T07:09:12;26.53;;;9.50;;
26080;SDS011;13991;51.174;4.438;2023-04-15T07:11:38;24.40;;;10.20;;
26080;SDS011;13991;51.174;4.438;2023-04-15T07:14:03;26.33;;;9.30;;
26080;SDS011;13991;51.174;4.438;2023-04-15T07:16:29;21.27;;;9.07;;
26080;SDS011;13991;51.174;4.438;2023-04-15T07:18:55;33.37;;;9.70;;
26080;SDS011;13991;51.174;4.438;2023-04-15T07:21:21;21.80;;;9.57;;
26080;SDS011;13991;51.174;4.438;2023-04-15T07:23:47;21.00;;;9.07;;
26080;SDS011;13991;51.174;4.438;2023-04-15T07:26:13;21.80;;;9.77;;
26080;SDS011;13991;51.174;4.438;2023-04-15T07:28:38;34.43;;;9.63;;
26080;SDS011;13991;51.174;4.438;2023-04-15T07:31:04;21.03;;;9.73;;
26080;SDS011;13991;51.174;4.438;2023-04-15T07:33:30;23.93;;;10.03;;
26080;SDS011;13991;51.174;4.438;2023-04-15T07:35:56;28.30;;;9.70;;
26080;SDS011;13991;51.174;4.438;2023-04-15T07:38:22;20.20;;;8.73;;
26080;SDS011;13991;51.174;4.438;2023-04-15T07:40:47;21.87;;;8.87;;
26080;SDS011;13991;51.174;4.438;2023-04-15T07:43:13;20.50;;;8.70;;
26080;SDS011;13991;51.174;4.438;2023-04-15T07:45:39;28.37;;;8.47;;
26080;SDS011;13991;51.174;4.438;2023-04-15T07:48:05;22.80;;;9.03;;
26080;SDS011;13991;51.174;4.438;2023-04-15T07:50:32;16.30;;;7.33;;
26080;SDS011;13991;51.174;4.438;2023-04-15T07:52:57;24.33;;;8.70;;
26080;SDS011;13991;51.174;4.438;2023-04-15T07:55:23;12.00;;;7.40;;
26080;SDS011;13991;51.174;4.438;2023-04-15T07:57:49;19.57;;;7.67;;
26080;SDS011;13991;51.174;4.438;2023-04-15T08:00:15;15.13;;;7.20;;
26080;SDS011;13991;51.174;4.438;2023-04-15T08:02:41;18.17;;;8.03;;
26080;SDS011;13991;51.174;4.438;2023-04-15T08:05:07;15.90;;;7.23;;
26080;SDS011;13991;51.174;4.438;2023-04-15T08:07:35;22.40;;;7.50;;
26080;SDS011;13991;51.174;4.438;2023-04-15T08:10:02;17.50;;;7.67;;
26080;SDS011;13991;51.174;4.438;2023-04-15T08:12:28;17.90;;;6.93;;
26080;SDS011;13991;51.174;4.438;2023-04-15T08:14:53;18.43;;;8.00;;
26080;SDS011;13991;51.174;4.438;2023-04-15T08:17:20;20.90;;;8.23;;
26080;SDS011;13991;51.174;4.438;2023-04-15T08:19:46;19.00;;;7.73;;
26080;SDS011;13991;51.174;4.438;2023-04-15T08:22:12;15.17;;;6.63;;
26080;SDS011;13991;51.174;4.438;2023-04-15T08:24:38;15.10;;;6.00;;
26080;SDS011;13991;51.174;4.438;2023-04-15T08:27:04;11.40;;;6.40;;
26080;SDS011;13991;51.174;4.438;2023-04-15T08:29:33;18.13;;;7.27;;
26080;SDS011;13991;51.174;4.438;2023-04-15T08:31:59;16.13;;;8.10;;
26080;SDS011;13991;51.174;4.438;2023-04-15T08:34:25;16.73;;;7.07;;
26080;SDS011;13991;51.174;4.438;2023-04-15T08:36:52;16.00;;;7.20;;
26080;SDS011;13991;51.174;4.438;2023-04-15T08:39:17;13.77;;;6.20;;
26080;SDS011;13991;51.174;4.438;2023-04-15T08:44:15;16.13;;;5.97;;
26080;SDS011;13991;51.174;4.438;2023-04-15T08:46:42;17.73;;;6.07;;
26080;SDS011;13991;51.174;4.438;2023-04-15T08:49:11;10.93;;;6.23;;
26080;SDS011;13991;51.174;4.438;2023-04-15T08:51:38;12.70;;;6.57;;
26080;SDS011;13991;51.174;4.438;2023-04-15T08:54:04;16.87;;;6.47;;
26080;SDS011;13991;51.174;4.438;2023-04-15T08:56:31;13.40;;;6.23;;
26080;SDS011;13991;51.174;4.438;2023-04-15T08:58:57;12.57;;;6.70;;
26080;SDS011;13991;51.174;4.438;2023-04-15T09:01:24;13.80;;;5.80;;
26080;SDS011;13991;51.174;4.438;2023-04-15T09:03:50;13.13;;;5.50;;
26080;SDS011;13991;51.174;4.438;2023-04-15T09:06:19;13.33;;;5.37;;
26080;SDS011;13991;51.174;4.438;2023-04-15T09:08:45;8.57;;;5.57;;
26080;SDS011;13991;51.174;4.438;2023-04-15T09:11:11;11.63;;;5.40;;
26080;SDS011;13991;51.174;4.438;2023-04-15T09:13:38;10.70;;;6.03;;
26080;SDS011;13991;51.174;4.438;2023-04-15T09:16:04;18.93;;;6.00;;
26080;SDS011;13991;51.174;4.438;2023-04-15T09:18:31;10.80;;;5.33;;
26080;SDS011;13991;51.174;4.438;2023-04-15T09:21:04;10.37;;;5.53;;
26080;SDS011;13991;51.174;4.438;2023-04-15T09:23:32;12.50;;;4.87;;
26080;SDS011;13991;51.174;4.438;2023-04-15T09:26:00;13.83;;;5.67;;
26080;SDS011;13991;51.174;4.438;2023-04-15T09:28:27;9.60;;;4.80;;
26080;SDS011;13991;51.174;4.438;2023-04-15T09:30:54;8.23;;;3.67;;
26080;SDS011;13991;51.174;4.438;2023-04-15T09:33:25;9.87;;;4.03;;
26080;SDS011;13991;51.174;4.438;2023-04-15T09:35:55;9.83;;;4.40;;
26080;SDS011;13991;51.174;4.438;2023-04-15T09:38:29;9.60;;;3.83;;
26080;SDS011;13991;51.174;4.438;2023-04-15T09:40:56;8.07;;;4.13;;
26080;SDS011;13991;51.174;4.438;2023-04-15T09:43:22;6.10;;;3.70;;
26080;SDS011;13991;51.174;4.438;2023-04-15T09:46:02;15.57;;;3.40;;
26080;SDS011;13991;51.174;4.438;2023-04-15T09:48:28;11.33;;;3.50;;
26080;SDS011;13991;51.174;4.438;2023-04-15T09:50:58;12.63;;;3.47;;
26080;SDS011;13991;51.174;4.438;2023-04-15T09:53:25;9.73;;;3.13;;
26080;SDS011;13991;51.174;4.438;2023-04-15T09:55:52;13.30;;;3.70;;
26080;SDS011;13991;51.174;4.438;2023-04-15T09:58:20;8.70;;;3.43;;
26080;SDS011;13991;51.174;4.438;2023-04-15T10:00:48;10.70;;;3.63;;
26080;SDS011;13991;51.174;4.438;2023-04-15T10:03:17;12.37;;;3.13;;
26080;SDS011;13991;51.174;4.438;2023-04-15T10:05:48;7.13;;;3.40;;
26080;SDS011;13991;51.174;4.438;2023-04-15T10:08:19;8.83;;;3.67;;
26080;SDS011;13991;51.174;4.438;2023-04-15T10:10:48;9.60;;;3.40;;
26080;SDS011;13991;51.174;4.438;2023-04-15T10:13:16;11.87;;;4.00;;
26080;SDS011;13991;51.174;4.438;2023-04-15T10:15:44;8.40;;;2.63;;
26080;SDS011;13991;51.174;4.438;2023-04-15T10:18:33;15.20;;;3.90;;
26080;SDS011;13991;51.174;4.438;2023-04-15T10:21:00;9.70;;;3.73;;
26080;SDS011;13991;51.174;4.438;2023-04-15T10:23:26;9.53;;;3.37;;
26080;SDS011;13991;51.174;4.438;2023-04-15T10:25:52;7.60;;;3.30;;
26080;SDS011;13991;51.174;4.438;2023-04-15T10:28:19;8.40;;;2.47;;
26080;SDS011;13991;51.174;4.438;2023-04-15T10:30:47;5.80;;;2.90;;
26080;SDS011;13991;51.174;4.438;2023-04-15T10:33:13;7.50;;;2.93;;
26080;SDS011;13991;51.174;4.438;2023-04-15T10:35:44;5.77;;;2.50;;
26080;SDS011;13991;51.174;4.438;2023-04-15T10:43:52;11.33;;;3.27;;
26080;SDS011;13991;51.174;4.438;2023-04-15T10:46:36;8.17;;;3.47;;
26080;SDS011;13991;51.174;4.438;2023-04-15T10:49:10;6.43;;;3.30;;
26080;SDS011;13991;51.174;4.438;2023-04-15T10:51:39;5.87;;;2.70;;
26080;SDS011;13991;51.174;4.438;2023-04-15T10:56:51;7.40;;;3.23;;
26080;SDS011;13991;51.174;4.438;2023-04-15T11:00:17;5.23;;;2.30;;
26080;SDS011;13991;51.174;4.438;2023-04-15T11:05:12;9.67;;;2.87;;
26080;SDS011;13991;51.174;4.438;2023-04-15T11:10:49;12.20;;;3.43;;
26080;SDS011;13991;51.174;4.438;2023-04-15T11:12:56;7.37;;;3.60;;
26080;SDS011;13991;51.174;4.438;2023-04-15T11:18:18;4.57;;;3.00;;
26080;SDS011;13991;51.174;4.438;2023-04-15T11:20:50;9.63;;;3.07;;
26080;SDS011;13991;51.174;4.438;2023-04-15T11:25:58;7.33;;;3.70;;
26080;SDS011;13991;51.174;4.438;2023-04-15T11:28:29;7.20;;;3.60;;
26080;SDS011;13991;51.174;4.438;2023-04-15T11:30:56;6.17;;;2.70;;
26080;SDS011;13991;51.174;4.438;2023-04-15T11:33:22;5.03;;;2.20;;
26080;SDS011;13991;51.174;4.438;2023-04-15T11:35:49;9.97;;;3.10;;
26080;SDS011;13991;51.174;4.438;2023-04-15T11:38:17;4.77;;;2.50;;
26080;SDS011;13991;51.174;4.438;2023-04-15T11:40:43;7.37;;;3.23;;
26080;SDS011;13991;51.174;4.438;2023-04-15T11:43:10;8.37;;;1.90;;
26080;SDS011;13991;51.174;4.438;2023-04-15T11:45:46;4.30;;;2.00;;
26080;SDS011;13991;51.174;4.438;2023-04-15T11:48:17;5.80;;;1.67;;
26080;SDS011;13991;51.174;4.438;2023-04-15T11:50:44;4.73;;;1.90;;
26080;SDS011;13991;51.174;4.438;2023-04-15T11:53:11;7.63;;;2.43;;
26080;SDS011;13991;51.174;4.438;2023-04-15T11:55:41;10.23;;;2.60;;
26080;SDS011;13991;51.174;4.438;2023-04-15T11:58:08;4.73;;;2.50;;
26080;SDS011;13991;51.174;4.438;2023-04-15T12:00:59;5.47;;;2.70;;
26080;SDS011;13991;51.174;4.438;2023-04-15T12:03:25;7.20;;;2.33;;
26080;SDS011;13991;51.174;4.438;2023-04-15T12:13:52;11.90;;;3.37;;
26080;SDS011;13991;51.174;4.438;2023-04-15T12:16:28;7.40;;;2.80;;
26080;SDS011;13991;51.174;4.438;2023-04-15T12:18:54;8.27;;;3.20;;
26080;SDS011;13991;51.174;4.438;2023-04-15T12:21:22;10.13;;;2.53;;
26080;SDS011;13991;51.174;4.438;2023-04-15T12:23:52;8.70;;;3.27;;
26080;SDS011;13991;51.174;4.438;2023-04-15T12:26:28;7.00;;;1.90;;
26080;SDS011;13991;51.174;4.438;2023-04-15T12:29:01;9.33;;;1.90;;
26080;SDS011;13991;51.174;4.438;2023-04-15T12:31:26;7.60;;;2.57;;
26080;SDS011;13991;51.174;4.438;2023-04-15T12:33:56;3.30;;;1.97;;
26080;SDS011;13991;51.174;4.438;2023-04-15T12:36:22;13.60;;;1.93;;
26080;SDS011;13991;51.174;4.438;2023-04-15T12:38:48;10.27;;;1.53;;
26080;SDS011;13991;51.174;4.438;2023-04-15T12:41:14;9.27;;;2.10;;
26080;SDS011;13991;51.174;4.438;2023-04-15T12:43:40;7.53;;;2.10;;
26080;SDS011;13991;51.174;4.438;2023-04-15T12:46:06;6.40;;;2.00;;
26080;SDS011;13991;51.174;4.438;2023-04-15T12:48:32;5.83;;;1.90;;
26080;SDS011;13991;51.174;4.438;2023-04-15T12:50:58;5.23;;;1.63;;
26080;SDS011;13991;51.174;4.438;2023-04-15T12:53:24;6.53;;;1.50;;
26080;SDS011;13991;51.174;4.438;2023-04-15T12:55:50;8.43;;;1.50;;
26080;SDS011;13991;51.174;4.438;2023-04-15T12:58:16;5.30;;;1.80;;
26080;SDS011;13991;51.174;4.438;2023-04-15T13:00:42;6.07;;;2.10;;
26080;SDS011;13991;51.174;4.438;2023-04-15T13:03:08;8.87;;;1.83;;
26080;SDS011;13991;51.174;4.438;2023-04-15T13:05:34;7.93;;;1.70;;
26080;SDS011;13991;51.174;4.438;2023-04-15T13:08:01;5.30;;;1.37;;
26080;SDS011;13991;51.174;4.438;2023-04-15T13:10:28;9.63;;;2.20;;
26080;SDS011;13991;51.174;4.438;2023-04-15T13:12:53;6.67;;;1.83;;
26080;SDS011;13991;51.174;4.438;2023-04-15T13:15:20;8.23;;;2.30;;
26080;SDS011;13991;51.174;4.438;2023-04-15T13:17:47;8.97;;;2.30;;
26080;SDS011;13991;51.174;4.438;2023-04-15T13:20:13;11.97;;;2.87;;
26080;SDS011;13991;51.174;4.438;2023-04-15T13:22:39;6.63;;;1.70;;
26080;SDS011;13991;51.174;4.438;2023-04-15T13:25:05;6.63;;;1.50;;
26080;SDS011;13991;51.174;4.438;2023-04-15T13:27:32;6.47;;;0.90;;
26080;SDS011;13991;51.174;4.438;2023-04-15T13:29:57;1.87;;;0.50;;
26080;SDS011;13991;51.174;4.438;2023-04-15T13:32:23;2.10;;;0.67;;
26080;SDS011;13991;51.174;4.438;2023-04-15T13:34:49;3.07;;;0.50;;
26080;SDS011;13991;51.174;4.438;2023-04-15T13:37:15;1.77;;;0.50;;
26080;SDS011;13991;51.174;4.438;2023-04-15T13:39:41;2.20;;;0.70;;
26080;SDS011;13991;51.174;4.438;2023-04-15T13:42:07;5.47;;;0.70;;
26080;SDS011;13991;51.174;4.438;2023-04-15T13:44:32;3.90;;;0.57;;
26080;SDS011;13991;51.174;4.438;2023-04-15T13:46:59;10.63;;;1.00;;
26080;SDS011;13991;51.174;4.438;2023-04-15T13:49:24;4.63;;;0.97;;
26080;SDS011;13991;51.174;4.438;2023-04-15T13:51:50;2.97;;;0.80;;
26080;SDS011;13991;51.174;4.438;2023-04-15T13:54:16;3.07;;;0.70;;
26080;SDS011;13991;51.174;4.438;2023-04-15T13:56:42;4.53;;;0.80;;
26080;SDS011;13991;51.174;4.438;2023-04-15T13:59:07;6.57;;;1.30;;
26080;SDS011;13991;51.174;4.438;2023-04-15T14:01:33;5.60;;;1.20;;
26080;SDS011;13991;51.174;4.438;2023-04-15T14:03:59;4.40;;;1.30;;
26080;SDS011;13991;51.174;4.438;2023-04-15T14:06:25;4.57;;;1.20;;
26080;SDS011;13991;51.174;4.438;2023-04-15T14:08:52;1.97;;;1.20;;
26080;SDS011;13991;51.174;4.438;2023-04-15T14:11:18;6.00;;;1.40;;
26080;SDS011;13991;51.174;4.438;2023-04-15T14:13:44;6.40;;;1.50;;
26080;SDS011;13991;51.174;4.438;2023-04-15T14:16:09;3.50;;;1.90;;
26080;SDS011;13991;51.174;4.438;2023-04-15T14:18:35;5.53;;;2.10;;
26080;SDS011;13991;51.174;4.438;2023-04-15T14:21:01;2.57;;;1.53;;
26080;SDS011;13991;51.174;4.438;2023-04-15T14:23:27;5.47;;;1.60;;
26080;SDS011;13991;51.174;4.438;2023-04-15T14:25:53;6.20;;;2.20;;
26080;SDS011;13991;51.174;4.438;2023-04-15T14:28:19;8.63;;;2.03;;
26080;SDS011;13991;51.174;4.438;2023-04-15T14:30:45;4.83;;;1.93;;
26080;SDS011;13991;51.174;4.438;2023-04-15T14:33:11;5.57;;;1.40;;
26080;SDS011;13991;51.174;4.438;2023-04-15T14:35:37;7.67;;;2.20;;
26080;SDS011;13991;51.174;4.438;2023-04-15T14:38:03;7.40;;;2.07;;
26080;SDS011;13991;51.174;4.438;2023-04-15T14:40:30;7.97;;;2.23;;
26080;SDS011;13991;51.174;4.438;2023-04-15T14:42:56;6.07;;;1.87;;
26080;SDS011;13991;51.174;4.438;2023-04-15T14:45:22;5.83;;;1.47;;
26080;SDS011;13991;51.174;4.438;2023-04-15T14:47:48;8.40;;;1.93;;
26080;SDS011;13991;51.174;4.438;2023-04-15T14:50:13;5.90;;;1.20;;
26080;SDS011;13991;51.174;4.438;2023-04-15T14:52:39;14.30;;;1.80;;
26080;SDS011;13991;51.174;4.438;2023-04-15T14:55:05;7.20;;;1.30;;
26080;SDS011;13991;51.174;4.438;2023-04-15T14:57:32;4.03;;;0.93;;
26080;SDS011;13991;51.174;4.438;2023-04-15T14:59:58;4.07;;;1.10;;
26080;SDS011;13991;51.174;4.438;2023-04-15T15:02:24;3.83;;;1.40;;
26080;SDS011;13991;51.174;4.438;2023-04-15T15:04:49;5.07;;;1.70;;